Time;durP1;ratioP1;P1;durP2;ratioP2;P2;SDS_P1;SDS_P2;PMS_P1;PMS_P2;Temp;Humidity;BMP_temperature;BMP_pressure;BME280_temperature;BME280_humidity;BME280_pressure;Samples;Min_cycle;Max_cycle;Signal;HPM_P1;HPM_P2
2021/12/22 00:01:49;;;;;;;12.55;6.55;;;;;;;-0.78;60.98;95680.25;5054560;28;20712;-77
2021/12/22 00:04:16;;;;;;;9.02;5.80;;;;;;;-0.77;60.58;95674.22;5055447;28;20206;-78
2021/12/22 00:06:43;;;;;;;9.50;5.78;;;;;;;-0.75;59.99;95679.31;5055837;28;20213;-78
2021/12/22 00:09:10;;;;;;;6.20;5.43;;;;;;;-0.72;60.15;95686.97;5056078;28;20208;-78
2021/12/22 00:11:38;;;;;;;7.97;7.18;;;;;;;-0.70;60.06;95680.03;5055925;28;20220;-77
2021/12/22 00:14:05;;;;;;;8.82;6.93;;;;;;;-0.68;59.76;95676.53;5055831;28;20205;-78
2021/12/22 00:16:32;;;;;;;8.70;5.80;;;;;;;-0.68;59.62;95678.25;5055728;28;20206;-78
2021/12/22 00:18:59;;;;;;;7.38;5.75;;;;;;;-0.72;59.47;95672.34;5055949;28;20202;-78
2021/12/22 00:21:26;;;;;;;6.05;5.45;;;;;;;-0.75;59.62;95679.31;5055366;28;20574;-78
2021/12/22 00:23:53;;;;;;;6.10;5.15;;;;;;;-0.76;59.80;95687.94;5055116;28;20225;-78
2021/12/22 00:26:20;;;;;;;7.38;5.63;;;;;;;-0.79;59.97;95678.56;5055132;28;20202;-78
2021/12/22 00:28:49;;;;;;;7.10;5.60;;;;;;;-0.78;59.24;95687.13;5055345;28;20304;-78
2021/12/22 00:31:19;;;;;;;7.30;5.70;;;;;;;-0.81;58.91;95689.81;5055093;28;20305;-78
2021/12/22 00:33:48;;;;;;;7.35;5.22;;;;;;;-0.85;58.95;95686.47;5055399;28;20209;-77
2021/12/22 00:36:17;;;;;;;7.53;5.72;;;;;;;-0.85;59.40;95683.06;5055511;28;20230;-78
2021/12/22 00:38:44;;;;;;;7.45;5.72;;;;;;;-0.86;58.95;95684.78;5055388;28;20202;-78
2021/12/22 00:41:11;;;;;;;7.22;5.43;;;;;;;-0.92;58.77;95687.50;5055124;28;20199;-78
2021/12/22 00:43:38;;;;;;;12.07;5.50;;;;;;;-1.07;59.00;95691.34;5054877;28;20202;-78
2021/12/22 00:46:07;;;;;;;6.18;5.13;;;;;;;-1.09;58.82;95694.84;5055154;28;20203;-78
2021/12/22 00:48:33;;;;;;;10.82;5.60;;;;;;;-1.18;59.60;95698.50;5054534;28;20210;-77
2021/12/22 00:51:02;;;;;;;7.20;5.25;;;;;;;-1.17;58.83;95701.91;5054705;28;20704;-78
2021/12/22 00:53:29;;;;;;;8.13;5.68;;;;;;;-1.24;59.49;95703.81;5054836;28;20202;-78
2021/12/22 00:55:56;;;;;;;6.47;5.07;;;;;;;-1.27;59.28;95709.91;5054718;28;20225;-78
2021/12/22 00:58:23;;;;;;;4.63;4.18;;;;;;;-1.38;59.12;95701.63;5054662;28;20246;-78
2021/12/22 01:00:50;;;;;;;6.88;4.55;;;;;;;-1.42;58.98;95707.72;5053111;28;20199;-78
2021/12/22 01:03:20;;;;;;;5.20;4.05;;;;;;;-1.56;59.94;95709.78;5054984;28;20206;-77
2021/12/22 01:05:47;;;;;;;5.10;3.97;;;;;;;-1.57;59.52;95700.38;5055377;28;20209;-77
2021/12/22 01:08:15;;;;;;;7.22;4.53;;;;;;;-1.61;59.70;95698.75;5054711;28;20211;-78
2021/12/22 01:10:42;;;;;;;5.35;4.60;;;;;;;-1.71;60.25;95689.59;5054272;28;20662;-78
2021/12/22 01:13:09;;;;;;;5.75;4.03;;;;;;;-1.71;60.08;95697.31;5053970;28;20210;-78
2021/12/22 01:15:37;;;;;;;7.32;5.10;;;;;;;-1.71;60.49;95693.00;5054495;28;20201;-78
2021/12/22 01:18:10;;;;;;;6.78;4.28;;;;;;;-1.78;60.75;95685.44;5054274;28;20199;-77
2021/12/22 01:20:53;;;;;;;6.30;4.30;;;;;;;-1.76;61.02;95684.53;5054574;28;20616;-78
2021/12/22 01:23:20;;;;;;;5.38;4.85;;;;;;;-1.75;61.18;95685.38;5054404;28;20198;-77
2021/12/22 01:25:48;;;;;;;5.10;4.70;;;;;;;-1.74;60.40;95674.19;5054822;28;20253;-78
2021/12/22 01:28:16;;;;;;;5.60;5.10;;;;;;;-1.76;60.92;95673.41;5054588;28;20286;-77
2021/12/22 01:30:46;;;;;;;5.63;5.00;;;;;;;-1.72;61.27;95667.31;5054507;28;20202;-77
2021/12/22 01:33:15;;;;;;;8.93;4.65;;;;;;;-1.74;60.61;95662.19;5054351;28;20202;-78
2021/12/22 01:35:45;;;;;;;7.65;5.35;;;;;;;-1.70;61.30;95662.97;5054278;28;20210;-77
2021/12/22 01:38:12;;;;;;;6.05;4.78;;;;;;;-1.67;60.48;95660.31;5055776;28;20205;-78
2021/12/22 01:40:42;;;;;;;5.20;4.70;;;;;;;-1.62;60.74;95673.91;5053573;28;20213;-78
2021/12/22 01:43:10;;;;;;;5.13;4.63;;;;;;;-1.70;60.82;95663.81;5054140;28;20198;-78
2021/12/22 01:45:56;;;;;;;6.72;4.90;;;;;;;-1.71;60.95;95656.16;5053822;28;20206;-78
2021/12/22 01:51:36;;;;;;;10.27;5.30;;;;;;;-1.65;60.81;95661.97;5031749;28;20258;-77
2021/12/22 01:54:07;;;;;;;5.60;4.47;;;;;;;-1.65;60.55;95661.97;4998566;28;20207;-77
2021/12/22 01:56:35;;;;;;;4.70;3.75;;;;;;;-1.63;60.27;95662.78;4998812;28;20199;-78
2021/12/22 01:59:05;;;;;;;5.75;5.18;;;;;;;-1.60;61.04;95664.44;4982316;28;20199;-78
2021/12/22 02:01:33;;;;;;;7.40;5.60;;;;;;;-1.63;61.02;95664.50;5031789;28;20211;-77
2021/12/22 02:04:01;;;;;;;7.70;5.15;;;;;;;-1.75;60.91;95657.91;5031626;28;20203;-77
2021/12/22 02:06:28;;;;;;;9.30;4.88;;;;;;;-1.78;61.80;95658.00;5031684;28;20215;-78
2021/12/22 02:08:58;;;;;;;5.97;4.75;;;;;;;-1.94;61.49;95651.56;5030922;28;20657;-78
2021/12/22 02:11:25;;;;;;;8.00;5.45;;;;;;;-1.90;62.17;95656.59;5030887;28;20230;-78
2021/12/22 02:13:57;;;;;;;6.57;5.75;;;;;;;-1.88;62.42;95659.97;5030723;28;20219;-76
2021/12/22 02:16:28;;;;;;;5.05;4.55;;;;;;;-1.93;62.41;95659.25;5030738;28;20286;-77
2021/12/22 02:18:56;;;;;;;6.28;4.97;;;;;;;-2.05;62.13;95654.38;5031212;28;20658;-77
2021/12/22 02:21:28;;;;;;;6.13;4.45;;;;;;;-2.12;62.84;95650.25;5030819;28;20239;-78
2021/12/22 02:23:55;;;;;;;6.10;3.97;;;;;;;-2.14;62.70;95652.03;4983639;28;20211;-78
2021/12/22 02:26:28;;;;;;;5.22;4.60;;;;;;;-2.13;62.10;95658.00;5031215;28;20211;-77
2021/12/22 02:29:00;;;;;;;4.93;4.10;;;;;;;-2.19;62.30;95649.56;5052114;28;20202;-78
2021/12/22 02:31:28;;;;;;;4.78;3.88;;;;;;;-2.26;61.90;95652.31;5053465;28;20218;-78
2021/12/22 02:33:57;;;;;;;5.03;4.53;;;;;;;-2.28;62.20;95641.22;5053091;28;20202;-77
2021/12/22 02:36:29;;;;;;;6.03;3.70;;;;;;;-2.34;62.45;95641.34;5051401;28;20209;-77
2021/12/22 02:38:58;;;;;;;8.68;5.40;;;;;;;-2.35;62.73;95647.38;5053144;28;20206;-78
2021/12/22 02:41:28;;;;;;;5.05;4.50;;;;;;;-2.34;61.98;95639.63;5050929;28;20206;-77
2021/12/22 02:43:57;;;;;;;5.00;4.50;;;;;;;-2.27;62.15;95635.22;5053127;28;20202;-78
2021/12/22 02:46:25;;;;;;;4.68;4.10;;;;;;;-2.26;62.36;95636.91;5052919;28;20214;-78
2021/12/22 02:48:54;;;;;;;11.40;5.03;;;;;;;-2.24;61.85;95637.69;5053096;28;20206;-78
2021/12/22 02:51:22;;;;;;;4.10;3.70;;;;;;;-2.29;62.10;95636.97;5053156;28;20561;-78
2021/12/22 02:54:02;;;;;;;4.68;4.25;;;;;;;-2.29;61.68;95636.97;5051154;28;20203;-78
2021/12/22 02:56:36;;;;;;;6.63;4.72;;;;;;;-2.51;61.59;95628.91;5053245;28;20256;-78
2021/12/22 02:59:14;;;;;;;4.75;4.25;;;;;;;-2.55;62.91;95643.53;5053094;28;20201;-77
2021/12/22 03:02:07;;;;;;;4.65;4.25;;;;;;;-2.56;62.60;95644.41;5053512;28;20592;-78
2021/12/22 03:04:43;;;;;;;5.03;4.53;;;;;;;-2.55;62.73;95648.66;5053195;28;20203;-77
2021/12/22 03:07:14;;;;;;;5.60;4.60;;;;;;;-2.51;62.12;95642.59;5051067;28;20290;-77
2021/12/22 03:09:42;;;;;;;6.53;4.40;;;;;;;-2.43;62.40;95641.56;5050742;28;20198;-78
2021/12/22 03:12:13;;;;;;;7.20;4.75;;;;;;;-2.42;61.82;95648.38;5052767;28;20226;-77
2021/12/22 03:14:40;;;;;;;4.65;4.25;;;;;;;-2.45;61.61;95646.75;5052784;28;20230;-78
2021/12/22 03:17:07;;;;;;;6.30;4.72;;;;;;;-2.45;62.04;95636.47;5052607;28;20205;-77
2021/12/22 03:19:36;;;;;;;4.20;3.80;;;;;;;-2.38;61.79;95643.13;5052574;28;20210;-78
2021/12/22 03:22:07;;;;;;;5.18;4.50;;;;;;;-2.33;61.28;95640.47;5052453;28;20229;-78
2021/12/22 03:24:37;;;;;;;5.15;4.18;;;;;;;-2.32;61.58;95642.16;5050743;28;20199;-77
2021/12/22 03:27:07;;;;;;;9.02;4.38;;;;;;;-2.26;61.99;95647.19;5053116;28;20662;-78
2021/12/22 03:29:37;;;;;;;4.65;4.25;;;;;;;-2.28;61.45;95633.53;5053094;28;20198;-78
2021/12/22 03:32:04;;;;;;;7.78;5.22;;;;;;;-2.33;61.42;95645.59;5053124;28;20227;-77
2021/12/22 03:34:31;;;;;;;5.47;4.10;;;;;;;-2.34;61.84;95649.91;5052527;28;20214;-79
2021/12/22 03:36:58;;;;;;;5.90;4.53;;;;;;;-2.39;61.21;95656.03;5019711;28;20214;-78
2021/12/22 03:39:25;;;;;;;7.07;4.72;;;;;;;-2.47;61.66;95650.22;5056052;28;20684;-77
2021/12/22 03:41:52;;;;;;;4.63;4.22;;;;;;;-2.49;62.23;95642.56;5056231;28;20290;-77
2021/12/22 03:44:20;;;;;;;7.22;5.13;;;;;;;-2.55;61.96;95642.69;5056219;28;20191;-77
2021/12/22 03:46:47;;;;;;;6.10;4.95;;;;;;;-2.63;62.29;95642.84;5056251;28;20199;-78
2021/12/22 03:49:16;;;;;;;6.00;5.00;;;;;;;-2.66;62.32;95637.78;5056294;28;20564;-77
2021/12/22 03:51:43;;;;;;;5.00;4.40;;;;;;;-2.74;62.88;95641.38;5055991;28;20241;-77
2021/12/22 03:54:11;;;;;;;8.25;5.45;;;;;;;-2.75;63.20;95643.09;5056465;28;20198;-77
2021/12/22 03:56:39;;;;;;;5.53;4.68;;;;;;;-2.81;63.11;95640.69;5056190;28;20203;-78
2021/12/22 03:59:06;;;;;;;7.85;5.18;;;;;;;-2.83;62.89;95647.56;5056729;28;20202;-77
2021/12/22 04:01:34;;;;;;;6.20;5.60;;;;;;;-2.90;63.13;95645.97;5056454;28;20198;-78
2021/12/22 04:04:08;;;;;;;7.70;4.88;;;;;;;-2.93;63.37;95648.63;5056475;28;20684;-77
2021/12/22 04:06:35;;;;;;;5.88;5.22;;;;;;;-2.96;63.88;95649.53;5056132;28;20595;-78
2021/12/22 04:09:02;;;;;;;6.57;4.85;;;;;;;-2.96;63.37;95653.81;5056078;28;20202;-77
2021/12/22 04:11:29;;;;;;;5.93;4.75;;;;;;;-3.00;63.61;95662.47;5056256;28;20293;-77
2021/12/22 04:13:56;;;;;;;5.28;4.72;;;;;;;-3.03;63.39;95662.53;5055716;28;20194;-78
2021/12/22 04:16:22;;;;;;;6.13;4.28;;;;;;;-2.96;63.58;95657.22;5056062;28;20207;-77
2021/12/22 04:18:51;;;;;;;6.30;5.30;;;;;;;-2.96;63.35;95657.22;5053558;28;20213;-78
2021/12/22 04:21:18;;;;;;;9.60;5.70;;;;;;;-2.91;63.75;95662.25;5055130;28;20261;-77
2021/12/22 04:23:45;;;;;;;7.18;5.53;;;;;;;-2.86;63.71;95670.75;5055850;28;20202;-77
2021/12/22 04:26:13;;;;;;;7.63;6.43;;;;;;;-2.90;63.79;95674.22;5055363;28;20199;-77
2021/12/22 04:28:40;;;;;;;8.25;6.00;;;;;;;-2.91;63.95;95667.41;5055635;28;20234;-78
2021/12/22 04:31:07;;;;;;;8.57;5.72;;;;;;;-2.90;64.34;95676.78;5055557;28;20206;-77
2021/12/22 04:33:34;;;;;;;8.93;6.88;;;;;;;-2.82;63.74;95662.94;5057605;28;20226;-77
2021/12/22 04:36:03;;;;;;;8.98;5.78;;;;;;;-2.86;63.62;95666.47;5055574;28;20577;-78
2021/12/22 04:38:30;;;;;;;6.20;5.43;;;;;;;-2.85;64.09;95672.44;5055534;28;20294;-78
2021/12/22 04:40:57;;;;;;;8.27;6.43;;;;;;;-2.94;63.78;95670.03;5055508;28;20202;-78
2021/12/22 04:43:24;;;;;;;9.25;6.25;;;;;;;-2.96;64.63;95671.78;5055072;28;20226;-78
2021/12/22 04:45:50;;;;;;;8.80;7.68;;;;;;;-2.98;65.26;95666.69;5054863;28;20206;-77
2021/12/22 04:48:17;;;;;;;7.28;5.55;;;;;;;-3.00;64.67;95660.75;5054341;28;20199;-78
2021/12/22 04:50:44;;;;;;;8.15;5.65;;;;;;;-2.95;65.09;95671.75;5055115;28;20203;-78
2021/12/22 04:53:17;;;;;;;6.32;5.72;;;;;;;-2.90;64.60;95674.22;5054741;28;20231;-78
2021/12/22 04:55:44;;;;;;;8.20;5.55;;;;;;;-2.81;64.16;95674.06;5055463;28;20205;-77
2021/12/22 04:58:11;;;;;;;10.80;6.45;;;;;;;-2.79;63.84;95674.03;5054752;28;20214;-77
2021/12/22 05:00:40;;;;;;;7.78;6.10;;;;;;;-2.81;63.59;95664.63;5055012;28;20225;-78
2021/12/22 05:03:07;;;;;;;7.65;6.03;;;;;;;-2.76;63.61;95677.38;5055805;28;20207;-77
2021/12/22 05:05:35;;;;;;;10.00;7.50;;;;;;;-2.75;63.83;95675.66;5056009;28;20199;-78
2021/12/22 05:08:02;;;;;;;12.45;8.70;;;;;;;-2.77;63.98;95673.13;5055070;28;20203;-78
2021/12/22 05:10:30;;;;;;;11.35;7.90;;;;;;;-2.73;63.29;95682.44;5054780;28;20521;-78
2021/12/22 05:12:57;;;;;;;9.20;7.32;;;;;;;-2.72;63.48;95671.28;5054538;28;20692;-77
2021/12/22 05:15:28;;;;;;;9.48;7.20;;;;;;;-2.75;63.83;95671.34;5054531;28;20206;-77
2021/12/22 05:18:14;;;;;;;12.40;6.93;;;;;;;-2.70;63.92;95682.38;5054776;28;20689;-77
2021/12/22 05:20:41;;;;;;;6.72;5.60;;;;;;;-2.69;63.97;95678.94;5054441;28;20198;-78
2021/12/22 05:23:08;;;;;;;9.85;5.82;;;;;;;-2.76;63.78;95687.66;5051887;28;20230;-78
2021/12/22 05:25:36;;;;;;;12.93;6.00;;;;;;;-2.70;63.89;95692.66;5054473;28;20650;-77
2021/12/22 05:28:04;;;;;;;6.70;5.95;;;;;;;-2.67;64.66;95691.75;5053985;28;20669;-77
2021/12/22 05:30:31;;;;;;;9.20;6.72;;;;;;;-2.78;63.87;95699.69;5054006;28;20206;-77
2021/12/22 05:32:58;;;;;;;8.73;6.35;;;;;;;-2.70;63.96;95697.78;5053965;28;20227;-78
2021/12/22 05:35:25;;;;;;;6.35;5.32;;;;;;;-2.69;63.56;95686.63;5054092;28;20202;-77
2021/12/22 05:37:52;;;;;;;9.20;4.68;;;;;;;-2.68;63.34;95698.59;5054265;28;20210;-78
2021/12/22 05:40:19;;;;;;;7.78;5.13;;;;;;;-2.66;63.82;95699.41;5055647;28;20206;-78
2021/12/22 05:42:47;;;;;;;6.72;5.68;;;;;;;-2.67;63.88;95702.84;5056124;28;20195;-78
2021/12/22 05:45:14;;;;;;;6.78;6.18;;;;;;;-2.74;64.01;95701.31;5055450;28;20210;-77
2021/12/22 05:47:41;;;;;;;8.93;6.13;;;;;;;-2.79;64.65;95704.84;5055543;28;20198;-77
2021/12/22 05:50:09;;;;;;;8.90;5.70;;;;;;;-2.76;65.23;95710.75;5056041;28;20202;-78
2021/12/22 05:52:36;;;;;;;7.10;5.07;;;;;;;-2.73;66.45;95705.56;5055333;28;20227;-78
2021/12/22 05:55:04;;;;;;;8.52;5.55;;;;;;;-2.74;65.67;95706.44;5054371;28;20091;-78
2021/12/22 05:57:31;;;;;;;9.20;6.32;;;;;;;-2.69;65.37;95712.31;5020114;28;20199;-77
2021/12/22 05:59:59;;;;;;;7.82;6.47;;;;;;;-2.75;64.85;95714.19;5054548;28;20195;-77
2021/12/22 06:02:26;;;;;;;10.00;7.50;;;;;;;-2.70;64.38;95699.50;5055110;28;20227;-78
2021/12/22 06:04:53;;;;;;;10.88;7.35;;;;;;;-2.67;64.31;95708.00;5055256;28;20210;-78
2021/12/22 06:07:20;;;;;;;10.07;7.03;;;;;;;-2.78;64.67;95698.84;5055507;28;20206;-78
2021/12/22 06:09:47;;;;;;;18.88;10.90;;;;;;;-2.71;64.24;95706.38;5054811;28;20207;-77
2021/12/22 06:12:14;;;;;;;34.42;10.75;;;;;;;-2.68;64.62;95711.44;5054709;28;20658;-77
2021/12/22 06:14:41;;;;;;;20.48;10.77;;;;;;;-2.68;64.34;95708.03;5055106;28;20205;-78
2021/12/22 06:17:09;;;;;;;17.70;10.95;;;;;;;-2.66;64.39;95713.97;5055552;28;20198;-78
2021/12/22 06:19:36;;;;;;;23.10;8.30;;;;;;;-2.68;64.71;95710.59;5054816;28;20606;-78
2021/12/22 06:22:03;;;;;;;10.23;7.07;;;;;;;-2.64;64.33;95717.34;5054863;28;20916;-78
2021/12/22 06:24:30;;;;;;;10.50;7.80;;;;;;;-2.60;64.49;95721.59;5054465;28;20210;-78
2021/12/22 06:26:57;;;;;;;11.85;7.10;;;;;;;-2.58;64.37;95715.53;5054322;28;20244;-78
2021/12/22 06:32:47;;;;;;;12.88;8.07;;;;;;;-2.51;64.91;95721.38;5054175;28;20217;-79
2021/12/22 06:35:14;;;;;;;19.83;9.43;;;;;;;-2.54;64.01;95732.56;5054746;28;20209;-78
2021/12/22 06:37:43;;;;;;;18.15;10.68;;;;;;;-2.56;64.29;95720.63;5054561;28;20660;-78
2021/12/22 06:40:11;;;;;;;19.17;11.95;;;;;;;-2.53;65.24;95724.00;5054250;28;20202;-78
2021/12/22 06:42:38;;;;;;;16.75;13.10;;;;;;;-2.48;64.80;95725.63;5054336;28;20197;-78
2021/12/22 06:45:07;;;;;;;21.90;13.98;;;;;;;-2.40;64.48;95726.28;5056345;28;20201;-78
2021/12/22 06:47:34;;;;;;;16.55;11.75;;;;;;;-2.32;64.72;95734.66;5054854;28;20203;-78
2021/12/22 06:50:03;;;;;;;16.92;8.55;;;;;;;-2.37;64.43;95721.06;5054257;28;20202;-77
2021/12/22 06:52:30;;;;;;;10.57;7.35;;;;;;;-2.37;63.72;95728.78;5053603;28;20214;-78
2021/12/22 06:54:57;;;;;;;8.05;6.40;;;;;;;-2.40;63.52;95728.84;5053506;28;20206;-77
2021/12/22 06:57:24;;;;;;;7.60;6.13;;;;;;;-2.35;63.66;95727.88;5054176;28;20199;-77
2021/12/22 06:59:51;;;;;;;11.20;7.32;;;;;;;-2.33;63.00;95735.56;5053870;28;20183;-77
2021/12/22 07:02:18;;;;;;;11.32;6.40;;;;;;;-2.28;63.01;95749.19;5052069;28;20202;-76
2021/12/22 07:04:44;;;;;;;20.63;12.70;;;;;;;-2.25;62.93;95738.81;5053767;28;20198;-76
2021/12/22 07:07:13;;;;;;;27.15;17.20;;;;;;;-2.25;62.47;95737.09;5053613;28;20197;-77
2021/12/22 07:09:39;;;;;;;32.10;15.55;;;;;;;-2.13;62.63;95747.97;5053832;28;20187;-78
2021/12/22 07:12:25;;;;;;;21.30;12.20;;;;;;;-2.06;62.71;95742.66;5055800;28;20195;-77
2021/12/22 07:14:52;;;;;;;20.50;10.68;;;;;;;-1.98;62.61;95747.66;5057557;28;20198;-77
2021/12/22 07:17:18;;;;;;;14.15;10.75;;;;;;;-1.95;62.59;95747.59;5056885;28;20190;-76
2021/12/22 07:19:45;;;;;;;17.45;8.48;;;;;;;-1.88;62.92;95741.41;5057916;28;20202;-77
2021/12/22 07:22:14;;;;;;;14.15;7.90;;;;;;;-1.79;62.97;95740.34;5057160;28;20227;-76
2021/12/22 07:24:40;;;;;;;13.23;7.30;;;;;;;-1.73;62.63;95746.22;5056585;28;20207;-77
2021/12/22 07:27:07;;;;;;;11.07;6.10;;;;;;;-1.69;62.34;95736.69;5056281;28;20199;-77
2021/12/22 07:29:34;;;;;;;20.73;7.40;;;;;;;-1.64;62.93;95740.00;5057435;28;20213;-77
2021/12/22 07:32:01;;;;;;;10.63;7.10;;;;;;;-1.66;63.30;95734.06;5037398;28;20205;-77
2021/12/22 07:34:35;;;;;;;13.05;7.32;;;;;;;-1.65;62.47;95741.72;5055720;28;20230;-77
2021/12/22 07:37:10;;;;;;;7.63;6.10;;;;;;;-1.52;62.32;95742.28;5055519;28;20298;-77
2021/12/22 07:39:38;;;;;;;10.40;7.68;;;;;;;-1.43;62.61;95739.50;5055661;28;20206;-77
2021/12/22 07:42:05;;;;;;;7.00;6.43;;;;;;;-1.36;61.84;95743.59;5055596;28;20653;-77
2021/12/22 07:44:32;;;;;;;7.00;5.88;;;;;;;-1.15;62.51;95742.22;5036882;28;20205;-77
2021/12/22 07:46:59;;;;;;;10.43;6.45;;;;;;;-1.11;61.82;95741.25;5055415;28;20700;-77
2021/12/22 07:49:26;;;;;;;6.40;5.57;;;;;;;-1.05;62.09;95735.09;5055385;28;20198;-77
2021/12/22 07:51:53;;;;;;;10.73;5.82;;;;;;;-0.98;61.76;95742.63;5020018;28;20674;-77
2021/12/22 07:54:20;;;;;;;14.48;6.60;;;;;;;-0.84;61.48;95739.69;5055472;28;20222;-76
2021/12/22 07:56:48;;;;;;;9.95;6.00;;;;;;;-0.72;61.07;95738.50;5055332;28;20202;-77
2021/12/22 07:59:15;;;;;;;7.30;5.70;;;;;;;-0.64;61.12;95736.53;5055558;28;20211;-76
2021/12/22 08:01:42;;;;;;;10.05;5.93;;;;;;;-0.57;60.57;95735.50;5055422;28;20218;-77
2021/12/22 08:04:09;;;;;;;8.73;6.85;;;;;;;-0.51;61.03;95729.34;5055607;28;20202;-77
2021/12/22 08:06:36;;;;;;;15.90;9.02;;;;;;;-0.43;60.91;95725.63;5055429;28;20206;-77
2021/12/22 08:09:06;;;;;;;9.90;6.10;;;;;;;-0.34;60.36;95740.84;5054893;28;20195;-77
2021/12/22 08:11:32;;;;;;;13.00;6.60;;;;;;;-0.23;60.22;95737.13;5054814;28;20595;-77
2021/12/22 08:14:01;;;;;;;41.83;20.85;;;;;;;-0.15;59.73;95738.56;5054664;28;20219;-78
2021/12/22 08:16:28;;;;;;;53.80;22.80;;;;;;;-0.05;58.95;95741.72;5054826;28;20202;-77
2021/12/22 08:18:54;;;;;;;34.80;18.55;;;;;;;-0.04;59.10;95739.09;5054489;28;20206;-77
2021/12/22 08:21:21;;;;;;;38.25;18.65;;;;;;;-0.03;58.37;95743.34;5054359;28;20226;-76
2021/12/22 08:23:48;;;;;;;24.65;14.32;;;;;;;0.11;58.14;95742.13;5053550;28;20231;-77
2021/12/22 08:26:15;;;;;;;15.65;9.60;;;;;;;0.28;58.20;95748.44;5054754;28;20207;-77
2021/12/22 08:28:46;;;;;;;21.33;11.35;;;;;;;0.43;58.71;95743.69;5019535;28;20669;-78
2021/12/22 08:31:15;;;;;;;15.63;9.98;;;;;;;0.39;58.42;95747.28;5054584;28;20198;-78
2021/12/22 08:33:45;;;;;;;21.70;12.70;;;;;;;0.41;59.19;95745.47;5054741;28;20222;-78
2021/12/22 08:39:00;;;;;;;27.60;15.20;;;;;;;0.43;62.77;95751.44;5054490;28;20630;-77
2021/12/22 08:41:29;;;;;;;33.70;16.90;;;;;;;0.23;63.13;95750.31;5055462;28;20561;-77
2021/12/22 08:44:00;;;;;;;23.88;15.50;;;;;;;0.10;63.44;95750.75;5055433;28;20645;-76
2021/12/22 08:46:29;;;;;;;18.67;13.20;;;;;;;0.20;63.05;95758.16;5055457;28;20646;-77
2021/12/22 08:48:57;;;;;;;26.55;15.32;;;;;;;0.13;63.77;95753.22;5054706;28;20575;-76
2021/12/22 08:51:24;;;;;;;25.10;14.07;;;;;;;0.21;63.91;95753.84;5054664;28;20218;-76
2021/12/22 08:53:53;;;;;;;15.70;12.05;;;;;;;0.29;63.86;95757.03;5054178;28;20231;-77
2021/12/22 08:56:20;;;;;;;15.10;11.52;;;;;;;0.28;63.02;95747.59;5053892;28;20268;-77
2021/12/22 08:58:47;;;;;;;13.80;10.10;;;;;;;0.13;63.72;95751.50;5054140;28;20203;-77
2021/12/22 09:01:15;;;;;;;20.80;8.98;;;;;;;0.11;62.62;95752.44;5054197;28;20198;-77
2021/12/22 09:03:43;;;;;;;21.00;12.48;;;;;;;0.08;63.82;95749.94;5053739;28;20574;-76
2021/12/22 09:06:13;;;;;;;15.82;10.80;;;;;;;0.24;63.39;95748.56;5053932;28;20223;-77
2021/12/22 09:08:40;;;;;;;12.93;9.70;;;;;;;0.10;62.78;95750.75;5055592;28;20241;-77
2021/12/22 09:11:07;;;;;;;22.75;11.38;;;;;;;0.11;62.42;95748.13;5055024;28;20898;-76
2021/12/22 09:13:35;;;;;;;14.90;9.38;;;;;;;0.23;62.28;95758.06;5055223;28;20599;-77
2021/12/22 09:16:03;;;;;;;14.02;9.65;;;;;;;0.30;62.55;95751.84;5055255;28;20203;-77
2021/12/22 09:18:29;;;;;;;12.88;9.75;;;;;;;0.28;61.93;95750.16;5054806;28;20183;-77
2021/12/22 09:21:00;;;;;;;30.67;13.02;;;;;;;0.43;62.32;95752.28;5054786;28;20191;-77
2021/12/22 09:23:27;;;;;;;22.52;13.23;;;;;;;0.47;62.62;95750.44;5054439;28;20560;-77
2021/12/22 09:25:54;;;;;;;21.35;13.68;;;;;;;0.38;63.14;95748.16;5055092;28;20207;-76
2021/12/22 09:28:21;;;;;;;22.27;13.85;;;;;;;0.38;62.61;95751.59;5055044;28;20193;-76
2021/12/22 09:30:48;;;;;;;22.88;11.88;;;;;;;0.39;62.47;95747.28;5054704;28;20565;-76
2021/12/22 09:33:17;;;;;;;20.33;12.75;;;;;;;0.45;63.29;95742.75;5053700;28;20761;-77
2021/12/22 09:35:46;;;;;;;25.30;13.82;;;;;;;0.52;62.66;95744.22;5053195;28;20206;-77
2021/12/22 09:38:14;;;;;;;30.73;14.05;;;;;;;0.41;62.41;95746.31;5053185;28;20723;-77
2021/12/22 09:40:42;;;;;;;23.77;14.30;;;;;;;0.45;62.32;95736.75;5053348;28;20202;-77
2021/12/22 09:43:10;;;;;;;18.95;13.38;;;;;;;1.92;78.33;95729.91;5054202;28;20206;-77
2021/12/22 09:45:42;;;;;;;32.90;15.13;;;;;;;1.98;63.36;95721.91;5054455;28;20194;-78
2021/12/22 09:48:26;;;;;;;29.17;14.40;;;;;;;1.82;59.85;95721.66;5042666;28;20216;-77
2021/12/22 09:52:15;;;;;;;27.88;17.92;;;;;;;1.62;59.43;95724.94;5047538;28;20214;-77
2021/12/22 09:53:46;;;;;;;28.48;14.93;;;;;;;1.37;61.03;95726.72;5033919;28;20699;-77
2021/12/22 09:56:16;;;;;;;24.02;16.55;;;;;;;1.27;61.71;95722.78;5034497;28;20203;-77
2021/12/22 09:58:45;;;;;;;50.13;20.08;;;;;;;1.37;61.72;95722.41;5034160;28;20188;-78
2021/12/22 10:01:13;;;;;;;27.65;15.82;;;;;;;1.28;61.12;95727.06;5034196;28;20218;-77
2021/12/22 10:03:40;;;;;;;26.52;15.48;;;;;;;1.32;61.69;95728.63;5053924;28;20200;-78
2021/12/22 10:06:09;;;;;;;24.17;14.98;;;;;;;1.33;61.94;95722.56;5054446;28;20191;-77
2021/12/22 10:08:39;;;;;;;27.42;14.27;;;;;;;1.08;62.15;95710.50;5052809;28;20194;-77
2021/12/22 10:11:10;;;;;;;23.50;15.02;;;;;;;1.13;61.55;95710.34;5052944;28;20230;-77
2021/12/22 10:13:38;;;;;;;25.25;15.45;;;;;;;1.27;61.42;95707.28;5052442;28;20233;-77
2021/12/22 10:16:12;;;;;;;26.20;15.55;;;;;;;1.49;60.72;95703.03;5052580;28;20209;-77
2021/12/22 10:18:39;;;;;;;26.63;13.20;;;;;;;1.61;59.73;95705.16;5052222;28;20214;-77
2021/12/22 10:21:11;;;;;;;23.52;13.95;;;;;;;1.63;59.76;95703.34;5052335;28;20226;-77
2021/12/22 10:23:42;;;;;;;24.00;14.40;;;;;;;1.68;58.60;95708.34;5052384;28;20209;-78
2021/12/22 10:26:15;;;;;;;20.52;13.73;;;;;;;1.84;59.19;95704.31;5052088;28;20457;-78
2021/12/22 10:28:49;;;;;;;25.13;15.87;;;;;;;1.99;58.94;95705.47;5049754;28;20672;-78
2021/12/22 10:31:19;;;;;;;23.83;14.23;;;;;;;1.92;58.40;95704.84;5052323;28;20936;-78
2021/12/22 10:33:47;;;;;;;23.23;15.38;;;;;;;1.84;58.91;95699.97;5033409;28;20215;-76
2021/12/22 10:36:17;;;;;;;18.73;13.07;;;;;;;1.83;58.44;95692.28;5033504;28;20206;-79
2021/12/22 10:38:51;;;;;;;27.27;15.13;;;;;;;1.81;57.86;95691.50;5052499;28;20198;-78
2021/12/22 10:41:21;;;;;;;26.13;16.13;;;;;;;1.86;57.80;95695.59;5044491;28;20790;-78
2021/12/22 10:43:50;;;;;;;23.85;16.48;;;;;;;1.78;58.05;95686.44;5035702;28;20195;-78
2021/12/22 10:46:25;;;;;;;18.00;13.40;;;;;;;1.70;58.50;95701.38;5032060;28;20201;-77
2021/12/22 10:49:17;;;;;;;27.45;15.90;;;;;;;1.60;58.63;95692.28;5032501;28;20485;-78
2021/12/22 10:51:46;;;;;;;24.30;14.20;;;;;;;1.53;59.08;95682.19;5035959;28;20211;-79
2021/12/22 10:54:16;;;;;;;22.45;15.63;;;;;;;1.48;59.27;95688.41;5052637;28;20219;-79
2021/12/22 10:56:47;;;;;;;25.02;15.65;;;;;;;1.35;59.72;95676.81;5052602;28;20252;-77
2021/12/22 10:59:17;;;;;;;26.45;14.93;;;;;;;1.07;61.05;95680.38;5052111;28;20200;-78
2021/12/22 11:02:06;;;;;;;19.30;14.65;;;;;;;1.02;60.67;95684.88;5052207;28;20206;-78
2021/12/22 11:04:34;;;;;;;24.80;14.93;;;;;;;0.98;60.32;95680.72;5052356;28;20293;-77
2021/12/22 11:07:08;;;;;;;27.13;17.35;;;;;;;1.16;60.42;95674.91;5052178;28;20779;-78
2021/12/22 11:09:36;;;;;;;27.50;15.82;;;;;;;1.28;60.30;95671.03;5051938;28;20198;-78
2021/12/22 11:12:06;;;;;;;24.63;16.23;;;;;;;1.30;60.38;95665.81;5051964;28;20221;-77
2021/12/22 11:14:36;;;;;;;20.88;15.00;;;;;;;1.22;59.83;95661.78;5033452;28;20229;-78
2021/12/22 11:17:06;;;;;;;21.60;13.60;;;;;;;1.28;60.93;95662.44;5052400;28;20241;-77
2021/12/22 11:19:35;;;;;;;24.25;15.25;;;;;;;1.36;60.25;95658.66;5051836;28;20203;-77
2021/12/22 11:22:12;;;;;;;30.75;15.00;;;;;;;1.25;60.08;95665.97;5052018;28;20270;-77
2021/12/22 11:24:42;;;;;;;37.50;15.90;;;;;;;1.47;60.80;95664.31;5051958;28;20626;-77
2021/12/22 11:27:12;;;;;;;24.70;14.75;;;;;;;1.53;60.01;95658.91;5051728;28;20217;-76
2021/12/22 11:29:42;;;;;;;23.02;15.02;;;;;;;1.67;59.54;95660.94;5051899;28;20206;-77
2021/12/22 11:32:13;;;;;;;27.60;15.57;;;;;;;1.67;58.74;95652.34;5052176;28;20578;-77
2021/12/22 11:34:44;;;;;;;28.55;16.50;;;;;;;1.61;59.09;95648.25;5051697;28;20254;-76
2021/12/22 11:37:11;;;;;;;34.15;15.32;;;;;;;1.50;59.62;95648.66;5051786;28;20198;-77
2021/12/22 11:39:39;;;;;;;25.58;15.40;;;;;;;1.58;59.34;95650.97;5053625;28;20747;-77
2021/12/22 11:42:08;;;;;;;24.60;14.02;;;;;;;1.62;58.67;95651.69;5051927;28;20293;-78
2021/12/22 11:44:39;;;;;;;26.75;14.88;;;;;;;1.61;58.90;95648.25;5051717;28;20211;-78
2021/12/22 11:47:09;;;;;;;20.17;13.02;;;;;;;1.34;59.55;95644.97;5051333;28;20211;-78